sensor_id;sensor_type;location;lat;lon;timestamp;P1;durP1;ratioP1;P2;durP2;ratioP2
78824;SDS011;68176;45.554;10.220;2023-04-24T00:01:34;4.70;;;2.00;;
78824;SDS011;68176;45.554;10.220;2023-04-24T00:04:05;3.22;;;2.13;;
78824;SDS011;68176;45.554;10.220;2023-04-24T00:06:34;4.50;;;2.17;;
78824;SDS011;68176;45.554;10.220;2023-04-24T00:09:04;2.53;;;1.70;;
78824;SDS011;68176;45.554;10.220;2023-04-24T00:11:34;3.70;;;1.92;;
78824;SDS011;68176;45.554;10.220;2023-04-24T00:14:04;3.67;;;2.05;;
78824;SDS011;68176;45.554;10.220;2023-04-24T00:16:34;3.47;;;2.30;;
78824;SDS011;68176;45.554;10.220;2023-04-24T00:19:04;3.05;;;2.03;;
78824;SDS011;68176;45.554;10.220;2023-04-24T00:21:34;4.68;;;1.95;;
78824;SDS011;68176;45.554;10.220;2023-04-24T00:24:04;3.17;;;1.70;;
78824;SDS011;68176;45.554;10.220;2023-04-24T00:26:34;2.85;;;1.77;;
78824;SDS011;68176;45.554;10.220;2023-04-24T00:29:04;3.30;;;1.83;;
78824;SDS011;68176;45.554;10.220;2023-04-24T00:31:34;2.50;;;1.90;;
78824;SDS011;68176;45.554;10.220;2023-04-24T00:34:04;4.28;;;2.35;;
78824;SDS011;68176;45.554;10.220;2023-04-24T00:36:34;3.00;;;2.03;;
78824;SDS011;68176;45.554;10.220;2023-04-24T00:39:04;3.38;;;1.92;;
78824;SDS011;68176;45.554;10.220;2023-04-24T00:41:37;3.65;;;1.70;;
78824;SDS011;68176;45.554;10.220;2023-04-24T00:44:04;2.47;;;1.63;;
78824;SDS011;68176;45.554;10.220;2023-04-24T00:46:34;2.53;;;1.67;;
78824;SDS011;68176;45.554;10.220;2023-04-24T00:49:04;3.25;;;1.88;;
78824;SDS011;68176;45.554;10.220;2023-04-24T00:51:39;2.55;;;2.15;;
78824;SDS011;68176;45.554;10.220;2023-04-24T00:56:34;4.28;;;1.92;;
78824;SDS011;68176;45.554;10.220;2023-04-24T00:59:06;2.85;;;1.95;;
78824;SDS011;68176;45.554;10.220;2023-04-24T01:01:35;5.80;;;2.03;;
78824;SDS011;68176;45.554;10.220;2023-04-24T01:04:08;2.90;;;2.30;;
78824;SDS011;68176;45.554;10.220;2023-04-24T01:06:43;2.65;;;2.30;;
78824;SDS011;68176;45.554;10.220;2023-04-24T01:09:10;7.35;;;1.55;;
78824;SDS011;68176;45.554;10.220;2023-04-24T01:11:37;2.65;;;1.70;;
78824;SDS011;68176;45.554;10.220;2023-04-24T01:14:07;2.75;;;2.05;;
78824;SDS011;68176;45.554;10.220;2023-04-24T01:19:07;3.05;;;2.13;;
78824;SDS011;68176;45.554;10.220;2023-04-24T01:21:37;2.72;;;1.45;;
78824;SDS011;68176;45.554;10.220;2023-04-24T01:24:07;3.55;;;1.65;;
78824;SDS011;68176;45.554;10.220;2023-04-24T01:26:37;3.00;;;2.13;;
78824;SDS011;68176;45.554;10.220;2023-04-24T01:29:07;3.08;;;2.17;;
78824;SDS011;68176;45.554;10.220;2023-04-24T01:31:37;2.80;;;2.00;;
78824;SDS011;68176;45.554;10.220;2023-04-24T01:34:07;3.10;;;2.22;;
78824;SDS011;68176;45.554;10.220;2023-04-24T01:36:37;3.67;;;1.88;;
78824;SDS011;68176;45.554;10.220;2023-04-24T01:39:07;3.15;;;1.98;;
78824;SDS011;68176;45.554;10.220;2023-04-24T01:41:37;3.03;;;1.95;;
78824;SDS011;68176;45.554;10.220;2023-04-24T01:44:07;3.38;;;1.85;;
78824;SDS011;68176;45.554;10.220;2023-04-24T01:46:37;2.88;;;1.80;;
78824;SDS011;68176;45.554;10.220;2023-04-24T01:49:07;2.55;;;2.15;;
78824;SDS011;68176;45.554;10.220;2023-04-24T01:51:37;3.53;;;1.70;;
78824;SDS011;68176;45.554;10.220;2023-04-24T01:54:07;3.72;;;2.20;;
78824;SDS011;68176;45.554;10.220;2023-04-24T01:56:39;2.78;;;1.88;;
78824;SDS011;68176;45.554;10.220;2023-04-24T01:59:08;3.50;;;1.73;;
78824;SDS011;68176;45.554;10.220;2023-04-24T02:01:38;2.47;;;1.65;;
78824;SDS011;68176;45.554;10.220;2023-04-24T02:04:07;2.78;;;1.67;;
78824;SDS011;68176;45.554;10.220;2023-04-24T02:06:37;2.65;;;1.67;;
78824;SDS011;68176;45.554;10.220;2023-04-24T02:09:07;2.70;;;1.83;;
78824;SDS011;68176;45.554;10.220;2023-04-24T02:11:37;3.08;;;2.03;;
78824;SDS011;68176;45.554;10.220;2023-04-24T02:14:07;3.05;;;1.95;;
78824;SDS011;68176;45.554;10.220;2023-04-24T02:16:37;4.20;;;1.55;;
78824;SDS011;68176;45.554;10.220;2023-04-24T02:19:07;3.80;;;2.72;;
78824;SDS011;68176;45.554;10.220;2023-04-24T02:21:37;3.40;;;2.13;;
78824;SDS011;68176;45.554;10.220;2023-04-24T02:24:07;3.45;;;2.08;;
78824;SDS011;68176;45.554;10.220;2023-04-24T02:26:37;2.72;;;1.45;;
78824;SDS011;68176;45.554;10.220;2023-04-24T02:29:08;2.65;;;1.80;;
78824;SDS011;68176;45.554;10.220;2023-04-24T02:31:37;3.63;;;1.83;;
78824;SDS011;68176;45.554;10.220;2023-04-24T02:34:07;3.60;;;1.92;;
78824;SDS011;68176;45.554;10.220;2023-04-24T02:36:37;2.75;;;1.67;;
78824;SDS011;68176;45.554;10.220;2023-04-24T02:39:08;3.00;;;1.75;;
78824;SDS011;68176;45.554;10.220;2023-04-24T02:41:38;2.42;;;1.58;;
78824;SDS011;68176;45.554;10.220;2023-04-24T02:44:08;3.28;;;2.00;;
78824;SDS011;68176;45.554;10.220;2023-04-24T02:46:38;3.42;;;1.98;;
78824;SDS011;68176;45.554;10.220;2023-04-24T02:51:38;2.28;;;1.38;;
78824;SDS011;68176;45.554;10.220;2023-04-24T02:54:08;2.90;;;1.88;;
78824;SDS011;68176;45.554;10.220;2023-04-24T02:56:38;3.42;;;2.15;;
78824;SDS011;68176;45.554;10.220;2023-04-24T02:59:08;3.70;;;1.95;;
78824;SDS011;68176;45.554;10.220;2023-04-24T03:04:08;4.00;;;1.95;;
78824;SDS011;68176;45.554;10.220;2023-04-24T03:06:38;2.33;;;1.55;;
78824;SDS011;68176;45.554;10.220;2023-04-24T03:09:11;7.50;;;1.85;;
78824;SDS011;68176;45.554;10.220;2023-04-24T03:11:38;2.42;;;1.77;;
78824;SDS011;68176;45.554;10.220;2023-04-24T03:14:08;2.67;;;1.48;;
78824;SDS011;68176;45.554;10.220;2023-04-24T03:16:38;3.35;;;2.13;;
78824;SDS011;68176;45.554;10.220;2023-04-24T03:19:08;3.28;;;2.05;;
78824;SDS011;68176;45.554;10.220;2023-04-24T03:21:38;2.65;;;1.90;;
78824;SDS011;68176;45.554;10.220;2023-04-24T03:24:08;2.70;;;1.88;;
78824;SDS011;68176;45.554;10.220;2023-04-24T03:26:38;2.90;;;2.20;;
78824;SDS011;68176;45.554;10.220;2023-04-24T03:29:08;3.90;;;1.92;;
78824;SDS011;68176;45.554;10.220;2023-04-24T03:31:38;3.17;;;2.08;;
78824;SDS011;68176;45.554;10.220;2023-04-24T03:34:08;3.35;;;2.20;;
78824;SDS011;68176;45.554;10.220;2023-04-24T03:36:38;3.65;;;1.63;;
78824;SDS011;68176;45.554;10.220;2023-04-24T03:39:08;3.13;;;1.92;;
78824;SDS011;68176;45.554;10.220;2023-04-24T03:41:38;3.28;;;1.67;;
78824;SDS011;68176;45.554;10.220;2023-04-24T03:44:08;3.33;;;1.98;;
78824;SDS011;68176;45.554;10.220;2023-04-24T03:49:08;2.70;;;1.75;;
78824;SDS011;68176;45.554;10.220;2023-04-24T03:51:38;3.15;;;1.70;;
78824;SDS011;68176;45.554;10.220;2023-04-24T03:56:38;2.92;;;1.52;;
78824;SDS011;68176;45.554;10.220;2023-04-24T03:59:08;2.63;;;1.67;;
78824;SDS011;68176;45.554;10.220;2023-04-24T04:01:38;2.45;;;1.88;;
78824;SDS011;68176;45.554;10.220;2023-04-24T04:04:08;2.72;;;1.70;;
78824;SDS011;68176;45.554;10.220;2023-04-24T04:09:08;4.22;;;1.60;;
78824;SDS011;68176;45.554;10.220;2023-04-24T04:11:38;2.83;;;1.83;;
78824;SDS011;68176;45.554;10.220;2023-04-24T04:14:08;3.47;;;1.80;;
78824;SDS011;68176;45.554;10.220;2023-04-24T04:16:38;3.53;;;1.83;;
78824;SDS011;68176;45.554;10.220;2023-04-24T04:19:11;2.45;;;1.58;;
78824;SDS011;68176;45.554;10.220;2023-04-24T04:21:38;2.63;;;1.92;;
78824;SDS011;68176;45.554;10.220;2023-04-24T04:24:08;2.88;;;1.98;;
78824;SDS011;68176;45.554;10.220;2023-04-24T04:26:38;3.22;;;1.70;;
78824;SDS011;68176;45.554;10.220;2023-04-24T04:29:08;2.45;;;1.10;;
78824;SDS011;68176;45.554;10.220;2023-04-24T04:31:38;2.92;;;2.15;;
78824;SDS011;68176;45.554;10.220;2023-04-24T04:34:08;2.88;;;1.88;;
78824;SDS011;68176;45.554;10.220;2023-04-24T04:36:38;3.30;;;2.03;;
78824;SDS011;68176;45.554;10.220;2023-04-24T04:39:08;3.13;;;1.45;;
78824;SDS011;68176;45.554;10.220;2023-04-24T04:41:38;4.80;;;2.97;;
78824;SDS011;68176;45.554;10.220;2023-04-24T04:44:08;2.25;;;1.48;;
78824;SDS011;68176;45.554;10.220;2023-04-24T04:46:38;2.33;;;1.50;;
78824;SDS011;68176;45.554;10.220;2023-04-24T04:49:08;4.97;;;1.90;;
78824;SDS011;68176;45.554;10.220;2023-04-24T04:51:38;2.28;;;1.65;;
78824;SDS011;68176;45.554;10.220;2023-04-24T04:56:38;4.47;;;1.75;;
78824;SDS011;68176;45.554;10.220;2023-04-24T04:59:08;2.92;;;1.80;;
78824;SDS011;68176;45.554;10.220;2023-04-24T05:01:38;2.58;;;1.45;;
78824;SDS011;68176;45.554;10.220;2023-04-24T05:04:08;2.47;;;1.60;;
78824;SDS011;68176;45.554;10.220;2023-04-24T05:06:38;2.83;;;1.60;;
78824;SDS011;68176;45.554;10.220;2023-04-24T05:09:08;2.85;;;1.20;;
78824;SDS011;68176;45.554;10.220;2023-04-24T05:11:38;3.35;;;1.83;;
78824;SDS011;68176;45.554;10.220;2023-04-24T05:14:08;3.42;;;1.73;;
78824;SDS011;68176;45.554;10.220;2023-04-24T05:16:39;2.90;;;1.70;;
78824;SDS011;68176;45.554;10.220;2023-04-24T05:19:11;3.38;;;1.63;;
78824;SDS011;68176;45.554;10.220;2023-04-24T05:21:38;5.30;;;2.27;;
78824;SDS011;68176;45.554;10.220;2023-04-24T05:24:11;4.50;;;1.85;;
78824;SDS011;68176;45.554;10.220;2023-04-24T05:26:38;2.03;;;1.10;;
78824;SDS011;68176;45.554;10.220;2023-04-24T05:29:08;3.65;;;1.80;;
78824;SDS011;68176;45.554;10.220;2023-04-24T05:31:38;2.70;;;1.67;;
78824;SDS011;68176;45.554;10.220;2023-04-24T05:34:08;2.65;;;1.65;;
78824;SDS011;68176;45.554;10.220;2023-04-24T05:36:38;2.65;;;1.65;;
78824;SDS011;68176;45.554;10.220;2023-04-24T05:39:08;3.10;;;1.52;;
78824;SDS011;68176;45.554;10.220;2023-04-24T05:41:38;2.42;;;1.63;;
78824;SDS011;68176;45.554;10.220;2023-04-24T05:44:09;2.55;;;1.63;;
78824;SDS011;68176;45.554;10.220;2023-04-24T05:46:38;2.97;;;1.73;;
78824;SDS011;68176;45.554;10.220;2023-04-24T05:49:12;2.05;;;1.27;;
78824;SDS011;68176;45.554;10.220;2023-04-24T05:51:38;1.75;;;1.13;;
78824;SDS011;68176;45.554;10.220;2023-04-24T05:54:08;2.92;;;1.67;;
78824;SDS011;68176;45.554;10.220;2023-04-24T05:56:39;2.28;;;1.60;;
78824;SDS011;68176;45.554;10.220;2023-04-24T05:59:08;3.08;;;2.33;;
78824;SDS011;68176;45.554;10.220;2023-04-24T06:01:38;3.00;;;1.70;;
78824;SDS011;68176;45.554;10.220;2023-04-24T06:04:08;2.72;;;1.90;;
78824;SDS011;68176;45.554;10.220;2023-04-24T06:06:42;2.85;;;1.73;;
78824;SDS011;68176;45.554;10.220;2023-04-24T06:09:09;2.30;;;1.45;;
78824;SDS011;68176;45.554;10.220;2023-04-24T06:11:39;2.22;;;1.40;;
78824;SDS011;68176;45.554;10.220;2023-04-24T06:14:16;2.20;;;1.40;;
78824;SDS011;68176;45.554;10.220;2023-04-24T06:16:42;1.75;;;1.20;;
78824;SDS011;68176;45.554;10.220;2023-04-24T06:19:09;2.55;;;1.20;;
78824;SDS011;68176;45.554;10.220;2023-04-24T06:21:39;2.85;;;1.73;;
78824;SDS011;68176;45.554;10.220;2023-04-24T06:24:09;2.30;;;1.60;;
78824;SDS011;68176;45.554;10.220;2023-04-24T06:26:39;2.47;;;1.52;;
78824;SDS011;68176;45.554;10.220;2023-04-24T06:29:16;3.50;;;1.60;;
78824;SDS011;68176;45.554;10.220;2023-04-24T06:31:41;1.75;;;0.85;;
78824;SDS011;68176;45.554;10.220;2023-04-24T06:34:09;2.70;;;1.67;;
78824;SDS011;68176;45.554;10.220;2023-04-24T06:36:39;3.00;;;1.33;;
78824;SDS011;68176;45.554;10.220;2023-04-24T06:39:09;2.47;;;1.33;;
78824;SDS011;68176;45.554;10.220;2023-04-24T06:41:39;2.45;;;1.40;;
78824;SDS011;68176;45.554;10.220;2023-04-24T06:44:12;2.22;;;1.38;;
78824;SDS011;68176;45.554;10.220;2023-04-24T06:46:42;4.93;;;2.10;;
78824;SDS011;68176;45.554;10.220;2023-04-24T06:49:09;2.72;;;1.80;;
78824;SDS011;68176;45.554;10.220;2023-04-24T06:51:40;2.30;;;1.30;;
78824;SDS011;68176;45.554;10.220;2023-04-24T06:54:09;2.58;;;1.55;;
78824;SDS011;68176;45.554;10.220;2023-04-24T06:56:39;2.22;;;1.45;;
78824;SDS011;68176;45.554;10.220;2023-04-24T06:59:09;2.28;;;1.35;;
78824;SDS011;68176;45.554;10.220;2023-04-24T07:01:39;1.67;;;0.95;;
78824;SDS011;68176;45.554;10.220;2023-04-24T07:04:12;1.88;;;1.15;;
78824;SDS011;68176;45.554;10.220;2023-04-24T07:06:42;1.75;;;1.08;;
78824;SDS011;68176;45.554;10.220;2023-04-24T07:15:28;1.97;;;1.10;;
78824;SDS011;68176;45.554;10.220;2023-04-24T07:17:54;1.83;;;1.03;;
78824;SDS011;68176;45.554;10.220;2023-04-24T07:22:49;2.55;;;1.08;;
78824;SDS011;68176;45.554;10.220;2023-04-24T07:25:19;3.80;;;1.92;;
78824;SDS011;68176;45.554;10.220;2023-04-24T07:27:49;2.20;;;1.65;;
78824;SDS011;68176;45.554;10.220;2023-04-24T07:30:19;2.08;;;1.00;;
78824;SDS011;68176;45.554;10.220;2023-04-24T07:32:49;3.85;;;2.83;;
78824;SDS011;68176;45.554;10.220;2023-04-24T07:35:19;3.20;;;2.47;;
78824;SDS011;68176;45.554;10.220;2023-04-24T07:37:49;2.88;;;1.65;;
78824;SDS011;68176;45.554;10.220;2023-04-24T07:40:19;3.20;;;2.22;;
78824;SDS011;68176;45.554;10.220;2023-04-24T07:42:49;2.40;;;1.60;;
78824;SDS011;68176;45.554;10.220;2023-04-24T07:45:22;4.32;;;1.83;;
78824;SDS011;68176;45.554;10.220;2023-04-24T07:47:50;2.53;;;1.45;;
78824;SDS011;68176;45.554;10.220;2023-04-24T07:50:19;2.78;;;1.48;;
78824;SDS011;68176;45.554;10.220;2023-04-24T07:52:49;2.78;;;1.75;;
78824;SDS011;68176;45.554;10.220;2023-04-24T07:55:19;4.30;;;1.52;;
78824;SDS011;68176;45.554;10.220;2023-04-24T07:57:49;3.08;;;2.00;;
78824;SDS011;68176;45.554;10.220;2023-04-24T08:00:19;4.40;;;1.60;;
78824;SDS011;68176;45.554;10.220;2023-04-24T08:02:49;3.80;;;1.83;;
78824;SDS011;68176;45.554;10.220;2023-04-24T08:05:19;2.13;;;1.35;;
78824;SDS011;68176;45.554;10.220;2023-04-24T08:07:49;2.78;;;1.88;;
78824;SDS011;68176;45.554;10.220;2023-04-24T08:10:20;2.47;;;1.60;;
78824;SDS011;68176;45.554;10.220;2023-04-24T08:12:49;3.80;;;1.60;;
78824;SDS011;68176;45.554;10.220;2023-04-24T08:15:19;5.25;;;1.80;;
78824;SDS011;68176;45.554;10.220;2023-04-24T08:17:49;2.08;;;1.10;;
78824;SDS011;68176;45.554;10.220;2023-04-24T08:20:19;2.30;;;1.20;;
78824;SDS011;68176;45.554;10.220;2023-04-24T08:22:49;2.83;;;1.35;;
78824;SDS011;68176;45.554;10.220;2023-04-24T08:27:50;5.85;;;1.45;;
78824;SDS011;68176;45.554;10.220;2023-04-24T08:30:19;1.65;;;0.90;;
78824;SDS011;68176;45.554;10.220;2023-04-24T08:32:49;2.50;;;1.63;;
78824;SDS011;68176;45.554;10.220;2023-04-24T08:35:19;2.17;;;1.45;;
78824;SDS011;68176;45.554;10.220;2023-04-24T08:37:49;4.55;;;1.80;;
78824;SDS011;68176;45.554;10.220;2023-04-24T08:40:21;2.35;;;1.25;;
78824;SDS011;68176;45.554;10.220;2023-04-24T08:42:57;1.40;;;0.87;;
78824;SDS011;68176;45.554;10.220;2023-04-24T08:45:24;1.70;;;1.20;;
78824;SDS011;68176;45.554;10.220;2023-04-24T08:47:51;3.25;;;2.00;;
78824;SDS011;68176;45.554;10.220;2023-04-24T08:50:21;2.50;;;1.05;;
78824;SDS011;68176;45.554;10.220;2023-04-24T08:52:51;2.13;;;1.50;;
78824;SDS011;68176;45.554;10.220;2023-04-24T08:55:21;2.17;;;1.63;;
78824;SDS011;68176;45.554;10.220;2023-04-24T08:57:52;2.55;;;1.13;;
78824;SDS011;68176;45.554;10.220;2023-04-24T09:00:21;2.38;;;1.13;;
78824;SDS011;68176;45.554;10.220;2023-04-24T09:02:54;2.50;;;1.35;;
78824;SDS011;68176;45.554;10.220;2023-04-24T09:05:21;2.97;;;0.95;;
78824;SDS011;68176;45.554;10.220;2023-04-24T09:07:54;2.80;;;1.45;;
78824;SDS011;68176;45.554;10.220;2023-04-24T09:10:21;3.25;;;1.13;;
78824;SDS011;68176;45.554;10.220;2023-04-24T09:12:51;4.15;;;1.48;;
78824;SDS011;68176;45.554;10.220;2023-04-24T09:15:21;3.17;;;1.58;;
78824;SDS011;68176;45.554;10.220;2023-04-24T09:17:51;4.55;;;1.40;;
78824;SDS011;68176;45.554;10.220;2023-04-24T09:20:21;3.42;;;1.13;;
78824;SDS011;68176;45.554;10.220;2023-04-24T09:22:53;2.45;;;1.42;;
78824;SDS011;68176;45.554;10.220;2023-04-24T09:25:21;2.65;;;1.38;;
78824;SDS011;68176;45.554;10.220;2023-04-24T09:27:53;1.77;;;1.05;;
78824;SDS011;68176;45.554;10.220;2023-04-24T09:30:21;4.00;;;1.65;;
78824;SDS011;68176;45.554;10.220;2023-04-24T09:33:09;2.28;;;1.42;;
78824;SDS011;68176;45.554;10.220;2023-04-24T09:35:35;1.65;;;1.13;;
78824;SDS011;68176;45.554;10.220;2023-04-24T09:38:00;0.80;;;0.50;;
78824;SDS011;68176;45.554;10.220;2023-04-24T09:40:29;3.63;;;1.65;;
78824;SDS011;68176;45.554;10.220;2023-04-24T09:42:59;2.05;;;1.27;;
78824;SDS011;68176;45.554;10.220;2023-04-24T09:45:36;3.33;;;1.20;;
78824;SDS011;68176;45.554;10.220;2023-04-24T09:48:02;1.30;;;0.65;;
78824;SDS011;68176;45.554;10.220;2023-04-24T09:50:30;1.60;;;1.05;;
78824;SDS011;68176;45.554;10.220;2023-04-24T09:53:03;4.10;;;0.70;;
78824;SDS011;68176;45.554;10.220;2023-04-24T09:55:29;1.40;;;1.10;;
78824;SDS011;68176;45.554;10.220;2023-04-24T09:58:00;2.85;;;1.30;;
78824;SDS011;68176;45.554;10.220;2023-04-24T10:00:30;2.10;;;1.40;;
78824;SDS011;68176;45.554;10.220;2023-04-24T10:03:00;2.90;;;1.17;;
78824;SDS011;68176;45.554;10.220;2023-04-24T10:05:30;1.98;;;1.40;;
78824;SDS011;68176;45.554;10.220;2023-04-24T10:08:00;1.45;;;1.08;;
78824;SDS011;68176;45.554;10.220;2023-04-24T10:10:30;2.05;;;1.08;;
78824;SDS011;68176;45.554;10.220;2023-04-24T10:12:59;1.80;;;1.02;;
78824;SDS011;68176;45.554;10.220;2023-04-24T10:15:29;1.75;;;0.90;;
78824;SDS011;68176;45.554;10.220;2023-04-24T10:17:59;2.17;;;1.00;;
78824;SDS011;68176;45.554;10.220;2023-04-24T10:20:29;1.42;;;0.80;;
78824;SDS011;68176;45.554;10.220;2023-04-24T10:23:00;2.33;;;0.85;;
78824;SDS011;68176;45.554;10.220;2023-04-24T10:25:31;1.88;;;1.27;;
78824;SDS011;68176;45.554;10.220;2023-04-24T10:28:00;1.52;;;1.02;;
78824;SDS011;68176;45.554;10.220;2023-04-24T10:30:31;4.55;;;4.05;;
78824;SDS011;68176;45.554;10.220;2023-04-24T10:33:01;2.90;;;1.70;;
78824;SDS011;68176;45.554;10.220;2023-04-24T10:35:30;6.07;;;3.72;;
78824;SDS011;68176;45.554;10.220;2023-04-24T10:38:12;4.68;;;3.08;;
78824;SDS011;68176;45.554;10.220;2023-04-24T10:40:39;3.10;;;2.83;;
78824;SDS011;68176;45.554;10.220;2023-04-24T10:43:05;3.40;;;3.10;;
78824;SDS011;68176;45.554;10.220;2023-04-24T10:45:33;3.55;;;3.20;;
78824;SDS011;68176;45.554;10.220;2023-04-24T10:50:46;5.72;;;2.95;;
78824;SDS011;68176;45.554;10.220;2023-04-24T10:53:17;3.67;;;3.17;;
78824;SDS011;68176;45.554;10.220;2023-04-24T10:55:51;6.17;;;3.03;;
78824;SDS011;68176;45.554;10.220;2023-04-24T10:58:45;3.72;;;3.03;;
78824;SDS011;68176;45.554;10.220;2023-04-24T11:09:09;7.67;;;2.17;;
78824;SDS011;68176;45.554;10.220;2023-04-24T11:11:38;3.17;;;1.93;;
78824;SDS011;68176;45.554;10.220;2023-04-24T11:14:09;6.25;;;2.65;;
78824;SDS011;68176;45.554;10.220;2023-04-24T11:21:42;3.65;;;2.35;;
78824;SDS011;68176;45.554;10.220;2023-04-24T11:27:04;2.33;;;1.57;;
78824;SDS011;68176;45.554;10.220;2023-04-24T11:29:39;2.10;;;1.40;;
78824;SDS011;68176;45.554;10.220;2023-04-24T11:32:22;1.92;;;1.05;;
78824;SDS011;68176;45.554;10.220;2023-04-24T11:35:05;5.50;;;1.95;;
78824;SDS011;68176;45.554;10.220;2023-04-24T11:37:43;2.53;;;2.10;;
78824;SDS011;68176;45.554;10.220;2023-04-24T11:40:14;4.75;;;2.22;;
78824;SDS011;68176;45.554;10.220;2023-04-24T11:42:41;3.70;;;2.30;;
78824;SDS011;68176;45.554;10.220;2023-04-24T11:47:37;3.13;;;2.58;;
78824;SDS011;68176;45.554;10.220;2023-04-24T11:50:08;5.88;;;2.58;;
78824;SDS011;68176;45.554;10.220;2023-04-24T11:52:38;4.40;;;3.08;;
78824;SDS011;68176;45.554;10.220;2023-04-24T11:55:09;3.67;;;2.33;;
78824;SDS011;68176;45.554;10.220;2023-04-24T11:57:49;3.67;;;2.63;;
78824;SDS011;68176;45.554;10.220;2023-04-24T12:02:42;5.38;;;2.67;;
78824;SDS011;68176;45.554;10.220;2023-04-24T12:07:48;3.50;;;2.57;;
78824;SDS011;68176;45.554;10.220;2023-04-24T12:12:42;4.05;;;2.67;;
78824;SDS011;68176;45.554;10.220;2023-04-24T12:15:12;3.97;;;2.83;;
78824;SDS011;68176;45.554;10.220;2023-04-24T12:17:42;5.53;;;2.90;;
78824;SDS011;68176;45.554;10.220;2023-04-24T12:20:12;3.55;;;2.30;;
78824;SDS011;68176;45.554;10.220;2023-04-24T12:25:12;2.63;;;1.70;;
78824;SDS011;68176;45.554;10.220;2023-04-24T12:27:42;3.45;;;2.20;;
78824;SDS011;68176;45.554;10.220;2023-04-24T12:30:13;4.35;;;2.65;;
78824;SDS011;68176;45.554;10.220;2023-04-24T12:32:43;4.70;;;2.38;;
78824;SDS011;68176;45.554;10.220;2023-04-24T12:35:12;6.63;;;1.95;;
78824;SDS011;68176;45.554;10.220;2023-04-24T12:37:42;2.78;;;1.92;;
78824;SDS011;68176;45.554;10.220;2023-04-24T12:40:12;2.78;;;1.48;;
78824;SDS011;68176;45.554;10.220;2023-04-24T12:42:44;3.03;;;1.20;;
78824;SDS011;68176;45.554;10.220;2023-04-24T12:45:13;4.30;;;2.78;;
78824;SDS011;68176;45.554;10.220;2023-04-24T12:47:43;3.33;;;2.30;;
78824;SDS011;68176;45.554;10.220;2023-04-24T12:50:13;3.28;;;2.22;;
78824;SDS011;68176;45.554;10.220;2023-04-24T12:52:42;3.92;;;3.08;;
78824;SDS011;68176;45.554;10.220;2023-04-24T12:55:12;5.45;;;2.75;;
78824;SDS011;68176;45.554;10.220;2023-04-24T12:57:42;4.38;;;2.47;;
78824;SDS011;68176;45.554;10.220;2023-04-24T13:00:12;3.30;;;1.83;;
78824;SDS011;68176;45.554;10.220;2023-04-24T13:02:42;2.97;;;2.25;;
78824;SDS011;68176;45.554;10.220;2023-04-24T13:05:12;4.85;;;3.15;;
78824;SDS011;68176;45.554;10.220;2023-04-24T13:07:42;4.70;;;2.97;;
78824;SDS011;68176;45.554;10.220;2023-04-24T13:10:12;5.45;;;4.05;;
78824;SDS011;68176;45.554;10.220;2023-04-24T13:12:42;3.88;;;2.42;;
78824;SDS011;68176;45.554;10.220;2023-04-24T13:15:12;5.88;;;5.25;;
78824;SDS011;68176;45.554;10.220;2023-04-24T13:17:42;6.28;;;4.15;;
78824;SDS011;68176;45.554;10.220;2023-04-24T13:20:12;5.07;;;3.42;;
78824;SDS011;68176;45.554;10.220;2023-04-24T13:22:42;6.05;;;3.95;;
78824;SDS011;68176;45.554;10.220;2023-04-24T13:25:12;4.00;;;3.05;;
78824;SDS011;68176;45.554;10.220;2023-04-24T13:27:42;5.60;;;3.88;;
78824;SDS011;68176;45.554;10.220;2023-04-24T13:30:12;5.88;;;3.78;;
78824;SDS011;68176;45.554;10.220;2023-04-24T13:32:42;10.65;;;4.13;;
78824;SDS011;68176;45.554;10.220;2023-04-24T13:35:12;6.97;;;4.13;;
78824;SDS011;68176;45.554;10.220;2023-04-24T13:37:42;4.03;;;2.70;;
78824;SDS011;68176;45.554;10.220;2023-04-24T13:40:12;7.10;;;3.70;;
78824;SDS011;68176;45.554;10.220;2023-04-24T13:42:42;5.78;;;4.32;;
78824;SDS011;68176;45.554;10.220;2023-04-24T13:45:12;7.20;;;5.20;;
78824;SDS011;68176;45.554;10.220;2023-04-24T13:47:42;5.40;;;3.85;;
78824;SDS011;68176;45.554;10.220;2023-04-24T13:50:12;6.28;;;4.53;;
78824;SDS011;68176;45.554;10.220;2023-04-24T13:52:42;9.32;;;4.70;;
78824;SDS011;68176;45.554;10.220;2023-04-24T13:55:12;7.10;;;5.78;;
78824;SDS011;68176;45.554;10.220;2023-04-24T13:57:42;8.05;;;6.05;;
78824;SDS011;68176;45.554;10.220;2023-04-24T14:00:12;8.10;;;6.05;;
78824;SDS011;68176;45.554;10.220;2023-04-24T14:02:43;10.57;;;5.70;;
78824;SDS011;68176;45.554;10.220;2023-04-24T14:05:13;8.32;;;5.78;;
78824;SDS011;68176;45.554;10.220;2023-04-24T14:07:42;9.63;;;4.72;;
78824;SDS011;68176;45.554;10.220;2023-04-24T14:10:12;7.55;;;6.28;;
78824;SDS011;68176;45.554;10.220;2023-04-24T14:12:42;10.93;;;6.82;;
78824;SDS011;68176;45.554;10.220;2023-04-24T14:15:13;6.55;;;5.35;;
78824;SDS011;68176;45.554;10.220;2023-04-24T14:17:43;6.10;;;4.65;;
78824;SDS011;68176;45.554;10.220;2023-04-24T14:20:12;8.95;;;4.65;;
78824;SDS011;68176;45.554;10.220;2023-04-24T14:22:43;6.28;;;3.95;;
78824;SDS011;68176;45.554;10.220;2023-04-24T14:25:13;5.88;;;3.65;;
78824;SDS011;68176;45.554;10.220;2023-04-24T14:27:43;6.43;;;3.20;;
78824;SDS011;68176;45.554;10.220;2023-04-24T14:30:13;4.90;;;1.38;;
78824;SDS011;68176;45.554;10.220;2023-04-24T14:32:43;5.63;;;1.02;;
78824;SDS011;68176;45.554;10.220;2023-04-24T14:35:13;1.15;;;0.32;;
78824;SDS011;68176;45.554;10.220;2023-04-24T14:37:43;1.63;;;0.30;;
78824;SDS011;68176;45.554;10.220;2023-04-24T14:40:13;0.55;;;0.15;;
78824;SDS011;68176;45.554;10.220;2023-04-24T14:42:43;2.30;;;0.57;;
78824;SDS011;68176;45.554;10.220;2023-04-24T14:45:13;0.73;;;0.30;;
78824;SDS011;68176;45.554;10.220;2023-04-24T14:47:43;1.48;;;0.93;;
78824;SDS011;68176;45.554;10.220;2023-04-24T14:50:13;1.90;;;0.55;;
78824;SDS011;68176;45.554;10.220;2023-04-24T14:52:43;1.60;;;0.60;;
78824;SDS011;68176;45.554;10.220;2023-04-24T14:55:13;3.15;;;1.08;;
78824;SDS011;68176;45.554;10.220;2023-04-24T14:57:43;1.17;;;0.30;;
78824;SDS011;68176;45.554;10.220;2023-04-24T15:00:13;1.40;;;0.43;;
78824;SDS011;68176;45.554;10.220;2023-04-24T15:02:43;1.25;;;0.85;;
78824;SDS011;68176;45.554;10.220;2023-04-24T15:05:13;1.65;;;1.33;;
78824;SDS011;68176;45.554;10.220;2023-04-24T15:07:43;1.90;;;0.32;;
78824;SDS011;68176;45.554;10.220;2023-04-24T15:10:13;0.60;;;0.17;;
78824;SDS011;68176;45.554;10.220;2023-04-24T15:12:43;0.82;;;0.20;;
78824;SDS011;68176;45.554;10.220;2023-04-24T15:15:13;1.05;;;0.43;;
78824;SDS011;68176;45.554;10.220;2023-04-24T15:17:43;1.83;;;0.60;;
78824;SDS011;68176;45.554;10.220;2023-04-24T15:20:13;0.93;;;0.30;;
78824;SDS011;68176;45.554;10.220;2023-04-24T15:22:43;3.85;;;0.50;;
78824;SDS011;68176;45.554;10.220;2023-04-24T15:25:13;2.17;;;0.95;;
78824;SDS011;68176;45.554;10.220;2023-04-24T15:27:43;1.55;;;0.95;;
78824;SDS011;68176;45.554;10.220;2023-04-24T15:30:13;2.10;;;1.90;;
78824;SDS011;68176;45.554;10.220;2023-04-24T15:32:43;2.72;;;2.08;;
78824;SDS011;68176;45.554;10.220;2023-04-24T15:35:13;1.92;;;1.83;;
78824;SDS011;68176;45.554;10.220;2023-04-24T15:37:43;1.65;;;0.82;;
78824;SDS011;68176;45.554;10.220;2023-04-24T15:40:13;4.05;;;3.80;;
78824;SDS011;68176;45.554;10.220;2023-04-24T15:42:43;3.47;;;3.22;;
78824;SDS011;68176;45.554;10.220;2023-04-24T15:45:13;3.25;;;1.85;;
78824;SDS011;68176;45.554;10.220;2023-04-24T15:47:44;0.93;;;0.52;;
78824;SDS011;68176;45.554;10.220;2023-04-24T15:50:13;0.25;;;0.05;;
78824;SDS011;68176;45.554;10.220;2023-04-24T15:52:43;1.77;;;0.10;;